sensor_id;sensor_type;location;lat;lon;timestamp;P1;durP1;ratioP1;P2;durP2;ratioP2
64875;SDS011;51369;49.862;9.908;2023-06-10T00:00:08;11.70;;;7.95;;
64875;SDS011;51369;49.862;9.908;2023-06-10T00:02:41;9.65;;;8.20;;
64875;SDS011;51369;49.862;9.908;2023-06-10T00:05:08;11.15;;;8.32;;
64875;SDS011;51369;49.862;9.908;2023-06-10T00:07:34;9.95;;;8.80;;
64875;SDS011;51369;49.862;9.908;2023-06-10T00:10:06;9.55;;;8.55;;
64875;SDS011;51369;49.862;9.908;2023-06-10T00:12:32;11.35;;;8.02;;
64875;SDS011;51369;49.862;9.908;2023-06-10T00:15:02;9.73;;;8.23;;
64875;SDS011;51369;49.862;9.908;2023-06-10T00:17:29;9.07;;;8.18;;
64875;SDS011;51369;49.862;9.908;2023-06-10T00:19:55;12.43;;;8.18;;
64875;SDS011;51369;49.862;9.908;2023-06-10T00:22:21;12.25;;;8.45;;
64875;SDS011;51369;49.862;9.908;2023-06-10T00:24:47;11.02;;;8.68;;
64875;SDS011;51369;49.862;9.908;2023-06-10T00:27:12;9.52;;;8.18;;
64875;SDS011;51369;49.862;9.908;2023-06-10T00:29:38;11.98;;;9.00;;
64875;SDS011;51369;49.862;9.908;2023-06-10T00:32:04;9.32;;;8.13;;
64875;SDS011;51369;49.862;9.908;2023-06-10T00:34:29;12.55;;;8.88;;
64875;SDS011;51369;49.862;9.908;2023-06-10T00:36:55;10.77;;;9.10;;
64875;SDS011;51369;49.862;9.908;2023-06-10T00:39:21;10.68;;;8.07;;
64875;SDS011;51369;49.862;9.908;2023-06-10T00:41:47;10.20;;;9.02;;
64875;SDS011;51369;49.862;9.908;2023-06-10T00:44:12;11.02;;;8.95;;
64875;SDS011;51369;49.862;9.908;2023-06-10T00:46:37;13.13;;;9.27;;
64875;SDS011;51369;49.862;9.908;2023-06-10T00:49:03;9.70;;;8.70;;
64875;SDS011;51369;49.862;9.908;2023-06-10T00:51:29;11.07;;;8.70;;
64875;SDS011;51369;49.862;9.908;2023-06-10T00:53:54;11.63;;;9.23;;
64875;SDS011;51369;49.862;9.908;2023-06-10T00:56:20;12.07;;;8.93;;
64875;SDS011;51369;49.862;9.908;2023-06-10T00:58:46;9.73;;;8.80;;
64875;SDS011;51369;49.862;9.908;2023-06-10T01:01:12;12.93;;;8.50;;
64875;SDS011;51369;49.862;9.908;2023-06-10T01:03:38;9.93;;;8.93;;
64875;SDS011;51369;49.862;9.908;2023-06-10T01:06:14;12.05;;;9.15;;
64875;SDS011;51369;49.862;9.908;2023-06-10T01:11:56;9.57;;;8.20;;
64875;SDS011;51369;49.862;9.908;2023-06-10T01:14:27;10.80;;;8.88;;
64875;SDS011;51369;49.862;9.908;2023-06-10T01:16:52;11.15;;;9.68;;
64875;SDS011;51369;49.862;9.908;2023-06-10T01:19:18;11.60;;;9.57;;
64875;SDS011;51369;49.862;9.908;2023-06-10T01:21:44;12.35;;;9.32;;
64875;SDS011;51369;49.862;9.908;2023-06-10T01:24:13;10.65;;;9.13;;
64875;SDS011;51369;49.862;9.908;2023-06-10T01:26:43;10.93;;;9.43;;
64875;SDS011;51369;49.862;9.908;2023-06-10T01:29:19;13.10;;;9.50;;
64875;SDS011;51369;49.862;9.908;2023-06-10T01:31:51;9.75;;;8.80;;
64875;SDS011;51369;49.862;9.908;2023-06-10T01:34:27;9.65;;;8.65;;
64875;SDS011;51369;49.862;9.908;2023-06-10T01:36:57;11.98;;;9.23;;
64875;SDS011;51369;49.862;9.908;2023-06-10T01:39:24;12.15;;;8.82;;
64875;SDS011;51369;49.862;9.908;2023-06-10T01:41:51;10.00;;;9.00;;
64875;SDS011;51369;49.862;9.908;2023-06-10T01:44:20;9.95;;;8.95;;
64875;SDS011;51369;49.862;9.908;2023-06-10T01:46:47;11.82;;;9.25;;
64875;SDS011;51369;49.862;9.908;2023-06-10T01:49:12;12.88;;;9.40;;
64875;SDS011;51369;49.862;9.908;2023-06-10T01:51:38;11.65;;;9.50;;
64875;SDS011;51369;49.862;9.908;2023-06-10T01:54:06;10.57;;;8.90;;
64875;SDS011;51369;49.862;9.908;2023-06-10T01:56:32;10.23;;;9.10;;
64875;SDS011;51369;49.862;9.908;2023-06-10T01:58:57;11.10;;;9.25;;
64875;SDS011;51369;49.862;9.908;2023-06-10T02:01:24;11.07;;;9.63;;
64875;SDS011;51369;49.862;9.908;2023-06-10T02:03:53;11.48;;;9.00;;
64875;SDS011;51369;49.862;9.908;2023-06-10T02:06:19;12.45;;;9.30;;
64875;SDS011;51369;49.862;9.908;2023-06-10T02:08:44;12.80;;;9.18;;
64875;SDS011;51369;49.862;9.908;2023-06-10T02:11:10;10.38;;;9.25;;
64875;SDS011;51369;49.862;9.908;2023-06-10T02:13:35;10.13;;;9.07;;
64875;SDS011;51369;49.862;9.908;2023-06-10T02:16:00;12.73;;;9.38;;
64875;SDS011;51369;49.862;9.908;2023-06-10T02:18:28;11.90;;;9.38;;
64875;SDS011;51369;49.862;9.908;2023-06-10T02:20:53;12.98;;;10.55;;
64875;SDS011;51369;49.862;9.908;2023-06-10T02:23:19;10.63;;;9.00;;
64875;SDS011;51369;49.862;9.908;2023-06-10T02:25:44;10.90;;;9.02;;
64875;SDS011;51369;49.862;9.908;2023-06-10T02:28:10;12.32;;;9.90;;
64875;SDS011;51369;49.862;9.908;2023-06-10T02:30:38;10.52;;;9.43;;
64875;SDS011;51369;49.862;9.908;2023-06-10T02:33:07;15.05;;;9.80;;
64875;SDS011;51369;49.862;9.908;2023-06-10T02:35:36;11.40;;;9.05;;
64875;SDS011;51369;49.862;9.908;2023-06-10T02:38:04;12.40;;;9.77;;
64875;SDS011;51369;49.862;9.908;2023-06-10T02:40:30;13.52;;;9.63;;
64875;SDS011;51369;49.862;9.908;2023-06-10T02:42:55;14.40;;;9.88;;
64875;SDS011;51369;49.862;9.908;2023-06-10T02:45:20;11.32;;;9.93;;
64875;SDS011;51369;49.862;9.908;2023-06-10T02:47:46;11.00;;;9.70;;
64875;SDS011;51369;49.862;9.908;2023-06-10T02:50:12;10.45;;;8.85;;
64875;SDS011;51369;49.862;9.908;2023-06-10T02:52:47;11.27;;;10.05;;
64875;SDS011;51369;49.862;9.908;2023-06-10T02:55:13;14.05;;;9.98;;
64875;SDS011;51369;49.862;9.908;2023-06-10T02:57:44;13.20;;;9.65;;
64875;SDS011;51369;49.862;9.908;2023-06-10T03:00:10;11.35;;;9.57;;
64875;SDS011;51369;49.862;9.908;2023-06-10T03:02:37;13.27;;;9.15;;
64875;SDS011;51369;49.862;9.908;2023-06-10T03:05:05;10.73;;;9.63;;
64875;SDS011;51369;49.862;9.908;2023-06-10T03:07:36;13.85;;;9.57;;
64875;SDS011;51369;49.862;9.908;2023-06-10T03:10:02;11.88;;;9.68;;
64875;SDS011;51369;49.862;9.908;2023-06-10T03:12:28;13.68;;;9.80;;
64875;SDS011;51369;49.862;9.908;2023-06-10T03:14:53;15.23;;;10.55;;
64875;SDS011;51369;49.862;9.908;2023-06-10T03:17:19;17.10;;;9.68;;
64875;SDS011;51369;49.862;9.908;2023-06-10T03:19:45;12.93;;;10.55;;
64875;SDS011;51369;49.862;9.908;2023-06-10T03:22:11;16.15;;;9.93;;
64875;SDS011;51369;49.862;9.908;2023-06-10T03:24:44;14.75;;;10.77;;
64875;SDS011;51369;49.862;9.908;2023-06-10T03:27:12;12.20;;;10.05;;
64875;SDS011;51369;49.862;9.908;2023-06-10T03:29:40;10.93;;;9.57;;
64875;SDS011;51369;49.862;9.908;2023-06-10T03:32:06;16.92;;;10.35;;
64875;SDS011;51369;49.862;9.908;2023-06-10T03:34:33;13.45;;;10.60;;
64875;SDS011;51369;49.862;9.908;2023-06-10T03:37:00;11.18;;;9.98;;
64875;SDS011;51369;49.862;9.908;2023-06-10T03:39:25;14.18;;;10.00;;
64875;SDS011;51369;49.862;9.908;2023-06-10T03:41:55;13.70;;;9.48;;
64875;SDS011;51369;49.862;9.908;2023-06-10T03:44:25;14.07;;;10.40;;
64875;SDS011;51369;49.862;9.908;2023-06-10T03:46:54;12.75;;;9.40;;
64875;SDS011;51369;49.862;9.908;2023-06-10T03:49:21;12.77;;;9.60;;
64875;SDS011;51369;49.862;9.908;2023-06-10T03:51:47;12.75;;;9.23;;
64875;SDS011;51369;49.862;9.908;2023-06-10T03:54:13;11.13;;;9.35;;
64875;SDS011;51369;49.862;9.908;2023-06-10T03:56:38;14.15;;;10.15;;
64875;SDS011;51369;49.862;9.908;2023-06-10T03:59:04;11.90;;;9.63;;
64875;SDS011;51369;49.862;9.908;2023-06-10T04:01:30;17.20;;;10.82;;
64875;SDS011;51369;49.862;9.908;2023-06-10T04:03:56;14.63;;;10.18;;
64875;SDS011;51369;49.862;9.908;2023-06-10T04:06:21;11.82;;;10.10;;
64875;SDS011;51369;49.862;9.908;2023-06-10T04:08:47;10.30;;;9.20;;
64875;SDS011;51369;49.862;9.908;2023-06-10T04:11:13;11.55;;;9.52;;
64875;SDS011;51369;49.862;9.908;2023-06-10T04:13:39;13.80;;;9.82;;
64875;SDS011;51369;49.862;9.908;2023-06-10T04:16:05;13.35;;;9.52;;
64875;SDS011;51369;49.862;9.908;2023-06-10T04:18:30;12.85;;;8.82;;
64875;SDS011;51369;49.862;9.908;2023-06-10T04:20:59;11.20;;;9.80;;
64875;SDS011;51369;49.862;9.908;2023-06-10T04:23:25;12.63;;;9.93;;
64875;SDS011;51369;49.862;9.908;2023-06-10T04:25:51;13.18;;;9.63;;
64875;SDS011;51369;49.862;9.908;2023-06-10T04:28:17;10.75;;;8.95;;
64875;SDS011;51369;49.862;9.908;2023-06-10T04:30:43;13.85;;;10.20;;
64875;SDS011;51369;49.862;9.908;2023-06-10T04:33:10;10.63;;;9.63;;
64875;SDS011;51369;49.862;9.908;2023-06-10T04:35:37;10.88;;;8.93;;
64875;SDS011;51369;49.862;9.908;2023-06-10T04:38:04;13.25;;;10.10;;
64875;SDS011;51369;49.862;9.908;2023-06-10T04:40:31;12.27;;;9.50;;
64875;SDS011;51369;49.862;9.908;2023-06-10T04:42:56;13.80;;;9.30;;
64875;SDS011;51369;49.862;9.908;2023-06-10T04:45:21;15.43;;;9.88;;
64875;SDS011;51369;49.862;9.908;2023-06-10T04:47:48;9.57;;;8.48;;
64875;SDS011;51369;49.862;9.908;2023-06-10T04:50:13;12.55;;;10.05;;
64875;SDS011;51369;49.862;9.908;2023-06-10T04:52:38;15.80;;;9.50;;
64875;SDS011;51369;49.862;9.908;2023-06-10T04:55:06;11.60;;;8.95;;
64875;SDS011;51369;49.862;9.908;2023-06-10T04:57:32;12.48;;;9.15;;
64875;SDS011;51369;49.862;9.908;2023-06-10T04:59:57;12.15;;;9.55;;
64875;SDS011;51369;49.862;9.908;2023-06-10T05:02:23;14.05;;;9.13;;
64875;SDS011;51369;49.862;9.908;2023-06-10T05:04:48;10.30;;;9.30;;
64875;SDS011;51369;49.862;9.908;2023-06-10T05:07:14;11.90;;;8.85;;
64875;SDS011;51369;49.862;9.908;2023-06-10T05:09:39;15.38;;;9.73;;
64875;SDS011;51369;49.862;9.908;2023-06-10T05:12:05;11.75;;;9.38;;
64875;SDS011;51369;49.862;9.908;2023-06-10T05:14:31;11.23;;;9.30;;
64875;SDS011;51369;49.862;9.908;2023-06-10T05:16:57;11.73;;;8.88;;
64875;SDS011;51369;49.862;9.908;2023-06-10T05:19:23;13.63;;;9.00;;
64875;SDS011;51369;49.862;9.908;2023-06-10T05:21:48;10.88;;;8.82;;
64875;SDS011;51369;49.862;9.908;2023-06-10T05:24:13;10.50;;;9.05;;
64875;SDS011;51369;49.862;9.908;2023-06-10T05:26:39;10.77;;;9.18;;
64875;SDS011;51369;49.862;9.908;2023-06-10T05:29:04;11.55;;;9.32;;
64875;SDS011;51369;49.862;9.908;2023-06-10T05:31:30;9.68;;;8.60;;
64875;SDS011;51369;49.862;9.908;2023-06-10T05:33:56;14.05;;;9.02;;
64875;SDS011;51369;49.862;9.908;2023-06-10T05:36:22;10.35;;;8.05;;
64875;SDS011;51369;49.862;9.908;2023-06-10T05:38:50;11.23;;;8.70;;
64875;SDS011;51369;49.862;9.908;2023-06-10T05:41:15;14.85;;;8.55;;
64875;SDS011;51369;49.862;9.908;2023-06-10T05:43:41;10.23;;;8.52;;
64875;SDS011;51369;49.862;9.908;2023-06-10T05:46:06;10.50;;;9.43;;
64875;SDS011;51369;49.862;9.908;2023-06-10T05:48:32;11.00;;;9.00;;
64875;SDS011;51369;49.862;9.908;2023-06-10T05:50:57;13.27;;;9.02;;
64875;SDS011;51369;49.862;9.908;2023-06-10T05:53:22;11.00;;;7.90;;
64875;SDS011;51369;49.862;9.908;2023-06-10T05:55:48;13.13;;;8.68;;
64875;SDS011;51369;49.862;9.908;2023-06-10T05:58:14;12.75;;;8.93;;
64875;SDS011;51369;49.862;9.908;2023-06-10T06:00:39;10.65;;;8.07;;
64875;SDS011;51369;49.862;9.908;2023-06-10T06:03:08;12.32;;;8.77;;
64875;SDS011;51369;49.862;9.908;2023-06-10T06:05:35;11.88;;;8.93;;
64875;SDS011;51369;49.862;9.908;2023-06-10T06:08:02;11.73;;;8.27;;
64875;SDS011;51369;49.862;9.908;2023-06-10T06:10:31;12.38;;;9.18;;
64875;SDS011;51369;49.862;9.908;2023-06-10T06:12:56;11.65;;;8.82;;
64875;SDS011;51369;49.862;9.908;2023-06-10T06:15:22;15.32;;;8.82;;
64875;SDS011;51369;49.862;9.908;2023-06-10T06:17:47;10.60;;;8.32;;
64875;SDS011;51369;49.862;9.908;2023-06-10T06:20:12;11.02;;;8.27;;
64875;SDS011;51369;49.862;9.908;2023-06-10T06:22:38;12.10;;;8.90;;
64875;SDS011;51369;49.862;9.908;2023-06-10T06:25:04;11.68;;;8.80;;
64875;SDS011;51369;49.862;9.908;2023-06-10T06:27:30;13.38;;;9.13;;
64875;SDS011;51369;49.862;9.908;2023-06-10T06:29:56;12.25;;;8.82;;
64875;SDS011;51369;49.862;9.908;2023-06-10T06:32:21;10.63;;;8.60;;
64875;SDS011;51369;49.862;9.908;2023-06-10T06:34:47;10.95;;;9.00;;
64875;SDS011;51369;49.862;9.908;2023-06-10T06:37:19;10.25;;;8.43;;
64875;SDS011;51369;49.862;9.908;2023-06-10T06:39:45;11.65;;;9.40;;
64875;SDS011;51369;49.862;9.908;2023-06-10T06:42:10;11.95;;;9.07;;
64875;SDS011;51369;49.862;9.908;2023-06-10T06:44:56;13.45;;;9.02;;
64875;SDS011;51369;49.862;9.908;2023-06-10T06:47:21;9.85;;;8.27;;
64875;SDS011;51369;49.862;9.908;2023-06-10T06:49:47;11.05;;;9.80;;
64875;SDS011;51369;49.862;9.908;2023-06-10T06:52:12;11.27;;;8.90;;
64875;SDS011;51369;49.862;9.908;2023-06-10T06:54:38;13.80;;;9.70;;
64875;SDS011;51369;49.862;9.908;2023-06-10T06:57:04;11.13;;;8.75;;
64875;SDS011;51369;49.862;9.908;2023-06-10T06:59:31;10.32;;;8.50;;
64875;SDS011;51369;49.862;9.908;2023-06-10T07:01:56;11.23;;;9.55;;
64875;SDS011;51369;49.862;9.908;2023-06-10T07:04:22;9.98;;;8.70;;
64875;SDS011;51369;49.862;9.908;2023-06-10T07:06:48;11.50;;;9.70;;
64875;SDS011;51369;49.862;9.908;2023-06-10T07:09:13;12.80;;;9.45;;
64875;SDS011;51369;49.862;9.908;2023-06-10T07:11:39;9.63;;;8.63;;
64875;SDS011;51369;49.862;9.908;2023-06-10T07:14:04;12.77;;;9.35;;
64875;SDS011;51369;49.862;9.908;2023-06-10T07:16:29;14.88;;;8.82;;
64875;SDS011;51369;49.862;9.908;2023-06-10T07:18:55;13.23;;;9.43;;
64875;SDS011;51369;49.862;9.908;2023-06-10T07:21:20;10.30;;;9.15;;
64875;SDS011;51369;49.862;9.908;2023-06-10T07:23:45;12.77;;;9.05;;
64875;SDS011;51369;49.862;9.908;2023-06-10T07:26:11;11.07;;;9.07;;
64875;SDS011;51369;49.862;9.908;2023-06-10T07:28:38;11.25;;;9.40;;
64875;SDS011;51369;49.862;9.908;2023-06-10T07:31:07;9.70;;;8.55;;
64875;SDS011;51369;49.862;9.908;2023-06-10T07:33:33;9.18;;;8.25;;
64875;SDS011;51369;49.862;9.908;2023-06-10T07:35:58;11.52;;;8.80;;
64875;SDS011;51369;49.862;9.908;2023-06-10T07:38:24;10.23;;;8.48;;
64875;SDS011;51369;49.862;9.908;2023-06-10T07:40:50;11.00;;;8.55;;
64875;SDS011;51369;49.862;9.908;2023-06-10T07:43:31;12.07;;;8.50;;
64875;SDS011;51369;49.862;9.908;2023-06-10T07:45:56;9.38;;;8.05;;
64875;SDS011;51369;49.862;9.908;2023-06-10T07:48:22;10.57;;;8.45;;
64875;SDS011;51369;49.862;9.908;2023-06-10T07:50:47;14.07;;;8.60;;
64875;SDS011;51369;49.862;9.908;2023-06-10T07:53:12;11.00;;;8.77;;
64875;SDS011;51369;49.862;9.908;2023-06-10T07:55:38;12.30;;;7.90;;
64875;SDS011;51369;49.862;9.908;2023-06-10T07:58:03;13.18;;;9.20;;
64875;SDS011;51369;49.862;9.908;2023-06-10T08:00:28;10.57;;;8.55;;
64875;SDS011;51369;49.862;9.908;2023-06-10T08:02:54;10.23;;;8.55;;
64875;SDS011;51369;49.862;9.908;2023-06-10T08:05:19;10.82;;;8.13;;
64875;SDS011;51369;49.862;9.908;2023-06-10T08:07:45;12.65;;;9.13;;
64875;SDS011;51369;49.862;9.908;2023-06-10T08:10:11;11.07;;;8.75;;
64875;SDS011;51369;49.862;9.908;2023-06-10T08:12:36;8.70;;;7.85;;
64875;SDS011;51369;49.862;9.908;2023-06-10T08:15:01;9.82;;;8.52;;
64875;SDS011;51369;49.862;9.908;2023-06-10T08:17:29;13.98;;;8.75;;
64875;SDS011;51369;49.862;9.908;2023-06-10T08:19:55;9.25;;;7.75;;
64875;SDS011;51369;49.862;9.908;2023-06-10T08:22:20;11.18;;;8.27;;
64875;SDS011;51369;49.862;9.908;2023-06-10T08:24:46;9.30;;;7.03;;
64875;SDS011;51369;49.862;9.908;2023-06-10T08:27:11;8.75;;;7.22;;
64875;SDS011;51369;49.862;9.908;2023-06-10T08:29:37;7.78;;;7.03;;
64875;SDS011;51369;49.862;9.908;2023-06-10T08:32:02;12.35;;;7.43;;
64875;SDS011;51369;49.862;9.908;2023-06-10T08:34:28;7.90;;;7.10;;
64875;SDS011;51369;49.862;9.908;2023-06-10T08:36:53;8.35;;;6.65;;
64875;SDS011;51369;49.862;9.908;2023-06-10T08:39:20;8.02;;;6.63;;
64875;SDS011;51369;49.862;9.908;2023-06-10T08:41:59;7.20;;;6.50;;
64875;SDS011;51369;49.862;9.908;2023-06-10T08:44:28;10.02;;;6.32;;
64875;SDS011;51369;49.862;9.908;2023-06-10T08:46:58;8.63;;;6.90;;
64875;SDS011;51369;49.862;9.908;2023-06-10T08:49:26;12.68;;;6.80;;
64875;SDS011;51369;49.862;9.908;2023-06-10T08:51:57;7.45;;;6.75;;
64875;SDS011;51369;49.862;9.908;2023-06-10T08:54:25;11.68;;;7.05;;
64875;SDS011;51369;49.862;9.908;2023-06-10T08:56:54;7.10;;;6.43;;
64875;SDS011;51369;49.862;9.908;2023-06-10T08:59:21;7.65;;;6.85;;
64875;SDS011;51369;49.862;9.908;2023-06-10T09:01:46;7.80;;;6.85;;
64875;SDS011;51369;49.862;9.908;2023-06-10T09:04:12;8.50;;;6.78;;
64875;SDS011;51369;49.862;9.908;2023-06-10T09:06:38;10.82;;;6.70;;
64875;SDS011;51369;49.862;9.908;2023-06-10T09:09:05;10.40;;;6.30;;
64875;SDS011;51369;49.862;9.908;2023-06-10T09:11:32;7.60;;;6.57;;
64875;SDS011;51369;49.862;9.908;2023-06-10T09:13:57;7.07;;;5.90;;
64875;SDS011;51369;49.862;9.908;2023-06-10T09:16:26;8.15;;;6.05;;
64875;SDS011;51369;49.862;9.908;2023-06-10T09:18:51;7.45;;;5.60;;
64875;SDS011;51369;49.862;9.908;2023-06-10T09:21:23;9.10;;;5.63;;
64875;SDS011;51369;49.862;9.908;2023-06-10T09:23:49;8.35;;;6.38;;
64875;SDS011;51369;49.862;9.908;2023-06-10T09:26:16;5.82;;;5.32;;
64875;SDS011;51369;49.862;9.908;2023-06-10T09:28:47;8.15;;;6.15;;
64875;SDS011;51369;49.862;9.908;2023-06-10T09:33:43;7.57;;;5.65;;
64875;SDS011;51369;49.862;9.908;2023-06-10T09:36:09;6.25;;;5.65;;
64875;SDS011;51369;49.862;9.908;2023-06-10T09:38:34;7.30;;;6.18;;
64875;SDS011;51369;49.862;9.908;2023-06-10T09:41:00;9.52;;;5.53;;
64875;SDS011;51369;49.862;9.908;2023-06-10T09:43:41;7.35;;;5.00;;
64875;SDS011;51369;49.862;9.908;2023-06-10T09:46:15;5.43;;;4.75;;
64875;SDS011;51369;49.862;9.908;2023-06-10T09:48:45;6.63;;;4.57;;
64875;SDS011;51369;49.862;9.908;2023-06-10T09:51:12;5.78;;;4.97;;
64875;SDS011;51369;49.862;9.908;2023-06-10T09:53:38;5.50;;;5.00;;
64875;SDS011;51369;49.862;9.908;2023-06-10T09:56:04;5.68;;;5.18;;
64875;SDS011;51369;49.862;9.908;2023-06-10T09:58:33;6.35;;;5.45;;
64875;SDS011;51369;49.862;9.908;2023-06-10T10:01:00;12.23;;;5.50;;
64875;SDS011;51369;49.862;9.908;2023-06-10T10:03:29;5.47;;;5.03;;
64875;SDS011;51369;49.862;9.908;2023-06-10T10:05:59;6.38;;;5.47;;
64875;SDS011;51369;49.862;9.908;2023-06-10T10:08:28;7.80;;;5.25;;
64875;SDS011;51369;49.862;9.908;2023-06-10T10:10:53;6.55;;;4.95;;
64875;SDS011;51369;49.862;9.908;2023-06-10T10:13:21;5.53;;;4.50;;
64875;SDS011;51369;49.862;9.908;2023-06-10T10:15:48;6.72;;;5.07;;
64875;SDS011;51369;49.862;9.908;2023-06-10T10:18:14;5.50;;;4.63;;
64875;SDS011;51369;49.862;9.908;2023-06-10T10:20:49;4.97;;;4.47;;
64875;SDS011;51369;49.862;9.908;2023-06-10T10:23:30;5.15;;;4.60;;
64875;SDS011;51369;49.862;9.908;2023-06-10T10:26:00;5.38;;;4.57;;
64875;SDS011;51369;49.862;9.908;2023-06-10T10:28:29;6.07;;;4.97;;
64875;SDS011;51369;49.862;9.908;2023-06-10T10:31:02;4.53;;;4.13;;
64875;SDS011;51369;49.862;9.908;2023-06-10T10:36:13;5.80;;;5.15;;
64875;SDS011;51369;49.862;9.908;2023-06-10T10:38:39;8.63;;;4.85;;
64875;SDS011;51369;49.862;9.908;2023-06-10T10:41:05;6.28;;;4.97;;
64875;SDS011;51369;49.862;9.908;2023-06-10T10:43:31;5.68;;;4.75;;
64875;SDS011;51369;49.862;9.908;2023-06-10T10:46:01;7.20;;;5.28;;
64875;SDS011;51369;49.862;9.908;2023-06-10T10:48:37;6.60;;;5.22;;
64875;SDS011;51369;49.862;9.908;2023-06-10T10:51:03;5.40;;;4.85;;
64875;SDS011;51369;49.862;9.908;2023-06-10T10:53:29;6.88;;;6.18;;
64875;SDS011;51369;49.862;9.908;2023-06-10T10:55:58;5.13;;;4.70;;
64875;SDS011;51369;49.862;9.908;2023-06-10T10:58:30;5.32;;;4.72;;
64875;SDS011;51369;49.862;9.908;2023-06-10T11:00:57;7.10;;;5.38;;
64875;SDS011;51369;49.862;9.908;2023-06-10T11:03:22;6.22;;;5.30;;
64875;SDS011;51369;49.862;9.908;2023-06-10T11:05:54;5.78;;;5.03;;
64875;SDS011;51369;49.862;9.908;2023-06-10T11:08:45;5.93;;;5.07;;
64875;SDS011;51369;49.862;9.908;2023-06-10T11:11:18;5.13;;;4.65;;
64875;SDS011;51369;49.862;9.908;2023-06-10T11:16:26;7.10;;;4.97;;
64875;SDS011;51369;49.862;9.908;2023-06-10T11:18:53;5.68;;;5.18;;
64875;SDS011;51369;49.862;9.908;2023-06-10T11:21:19;7.65;;;5.45;;
64875;SDS011;51369;49.862;9.908;2023-06-10T11:23:45;6.85;;;5.40;;
64875;SDS011;51369;49.862;9.908;2023-06-10T11:26:14;7.13;;;5.00;;
64875;SDS011;51369;49.862;9.908;2023-06-10T11:31:25;6.50;;;5.07;;
64875;SDS011;51369;49.862;9.908;2023-06-10T11:33:52;5.28;;;4.43;;
64875;SDS011;51369;49.862;9.908;2023-06-10T11:36:18;5.13;;;4.60;;
64875;SDS011;51369;49.862;9.908;2023-06-10T11:38:44;5.45;;;4.95;;
64875;SDS011;51369;49.862;9.908;2023-06-10T11:41:10;7.72;;;5.25;;
64875;SDS011;51369;49.862;9.908;2023-06-10T11:43:37;6.78;;;5.35;;
64875;SDS011;51369;49.862;9.908;2023-06-10T11:46:08;5.25;;;4.75;;
64875;SDS011;51369;49.862;9.908;2023-06-10T11:48:33;6.50;;;5.32;;
64875;SDS011;51369;49.862;9.908;2023-06-10T11:50:59;5.28;;;4.70;;
64875;SDS011;51369;49.862;9.908;2023-06-10T11:53:24;5.57;;;4.35;;
64875;SDS011;51369;49.862;9.908;2023-06-10T11:55:50;5.47;;;4.63;;
64875;SDS011;51369;49.862;9.908;2023-06-10T11:58:16;5.80;;;4.75;;
64875;SDS011;51369;49.862;9.908;2023-06-10T12:00:53;6.10;;;4.68;;
64875;SDS011;51369;49.862;9.908;2023-06-10T12:03:22;6.82;;;4.80;;
64875;SDS011;51369;49.862;9.908;2023-06-10T12:06:05;4.82;;;4.45;;
64875;SDS011;51369;49.862;9.908;2023-06-10T12:08:32;5.25;;;4.57;;
64875;SDS011;51369;49.862;9.908;2023-06-10T12:10:58;6.60;;;5.05;;
64875;SDS011;51369;49.862;9.908;2023-06-10T12:13:26;6.78;;;4.90;;
64875;SDS011;51369;49.862;9.908;2023-06-10T12:15:52;5.95;;;5.05;;
64875;SDS011;51369;49.862;9.908;2023-06-10T12:18:18;6.05;;;4.60;;
64875;SDS011;51369;49.862;9.908;2023-06-10T12:20:45;5.03;;;4.40;;
64875;SDS011;51369;49.862;9.908;2023-06-10T12:23:11;9.45;;;4.80;;
64875;SDS011;51369;49.862;9.908;2023-06-10T12:25:37;7.13;;;5.18;;
64875;SDS011;51369;49.862;9.908;2023-06-10T12:28:04;5.47;;;4.68;;
64875;SDS011;51369;49.862;9.908;2023-06-10T12:30:30;5.07;;;4.60;;
64875;SDS011;51369;49.862;9.908;2023-06-10T12:32:57;7.22;;;4.72;;
64875;SDS011;51369;49.862;9.908;2023-06-10T12:35:23;5.30;;;4.40;;
64875;SDS011;51369;49.862;9.908;2023-06-10T12:38:03;5.25;;;4.65;;
64875;SDS011;51369;49.862;9.908;2023-06-10T12:40:36;6.60;;;4.60;;
64875;SDS011;51369;49.862;9.908;2023-06-10T12:43:04;8.07;;;4.68;;
64875;SDS011;51369;49.862;9.908;2023-06-10T12:45:30;5.00;;;4.60;;
64875;SDS011;51369;49.862;9.908;2023-06-10T12:48:10;5.15;;;4.65;;
64875;SDS011;51369;49.862;9.908;2023-06-10T12:50:50;9.90;;;4.50;;
64875;SDS011;51369;49.862;9.908;2023-06-10T12:53:20;5.38;;;4.22;;
64875;SDS011;51369;49.862;9.908;2023-06-10T12:55:46;5.50;;;4.72;;
64875;SDS011;51369;49.862;9.908;2023-06-10T12:58:12;5.05;;;4.15;;
64875;SDS011;51369;49.862;9.908;2023-06-10T13:00:39;5.35;;;4.15;;
64875;SDS011;51369;49.862;9.908;2023-06-10T13:03:04;6.00;;;4.43;;
64875;SDS011;51369;49.862;9.908;2023-06-10T13:05:33;5.32;;;3.80;;
64875;SDS011;51369;49.862;9.908;2023-06-10T13:07:59;4.45;;;4.10;;
64875;SDS011;51369;49.862;9.908;2023-06-10T13:10:24;4.15;;;3.85;;
64875;SDS011;51369;49.862;9.908;2023-06-10T13:12:50;4.68;;;4.28;;
64875;SDS011;51369;49.862;9.908;2023-06-10T13:15:16;4.88;;;4.47;;
64875;SDS011;51369;49.862;9.908;2023-06-10T13:17:43;5.13;;;3.97;;
64875;SDS011;51369;49.862;9.908;2023-06-10T13:20:11;5.28;;;4.25;;
64875;SDS011;51369;49.862;9.908;2023-06-10T13:22:37;5.22;;;4.35;;
64875;SDS011;51369;49.862;9.908;2023-06-10T13:25:02;4.75;;;4.35;;
64875;SDS011;51369;49.862;9.908;2023-06-10T13:27:29;5.30;;;4.53;;
64875;SDS011;51369;49.862;9.908;2023-06-10T13:29:55;6.00;;;4.88;;
64875;SDS011;51369;49.862;9.908;2023-06-10T13:32:20;5.43;;;4.75;;
64875;SDS011;51369;49.862;9.908;2023-06-10T13:34:46;6.53;;;4.72;;
64875;SDS011;51369;49.862;9.908;2023-06-10T13:37:12;4.82;;;4.43;;
64875;SDS011;51369;49.862;9.908;2023-06-10T13:39:42;4.95;;;4.45;;
64875;SDS011;51369;49.862;9.908;2023-06-10T13:42:08;8.40;;;4.40;;
64875;SDS011;51369;49.862;9.908;2023-06-10T13:44:34;4.88;;;4.47;;
64875;SDS011;51369;49.862;9.908;2023-06-10T13:47:01;4.65;;;4.35;;
64875;SDS011;51369;49.862;9.908;2023-06-10T13:49:27;5.38;;;4.30;;
64875;SDS011;51369;49.862;9.908;2023-06-10T13:51:53;4.55;;;4.20;;
64875;SDS011;51369;49.862;9.908;2023-06-10T13:54:18;6.05;;;4.97;;
64875;SDS011;51369;49.862;9.908;2023-06-10T13:56:44;4.97;;;4.57;;
64875;SDS011;51369;49.862;9.908;2023-06-10T13:59:09;4.88;;;4.35;;
64875;SDS011;51369;49.862;9.908;2023-06-10T14:01:35;5.57;;;4.47;;
64875;SDS011;51369;49.862;9.908;2023-06-10T14:04:00;4.80;;;4.40;;
64875;SDS011;51369;49.862;9.908;2023-06-10T14:06:26;4.88;;;4.32;;
64875;SDS011;51369;49.862;9.908;2023-06-10T14:08:52;4.78;;;4.30;;
64875;SDS011;51369;49.862;9.908;2023-06-10T14:11:20;6.72;;;4.03;;
64875;SDS011;51369;49.862;9.908;2023-06-10T14:13:46;5.28;;;4.50;;
64875;SDS011;51369;49.862;9.908;2023-06-10T14:16:11;5.50;;;4.93;;
64875;SDS011;51369;49.862;9.908;2023-06-10T14:18:38;6.00;;;4.38;;
64875;SDS011;51369;49.862;9.908;2023-06-10T14:21:03;6.43;;;4.10;;
64875;SDS011;51369;49.862;9.908;2023-06-10T14:23:28;5.45;;;4.20;;
64875;SDS011;51369;49.862;9.908;2023-06-10T14:25:54;5.53;;;4.40;;
64875;SDS011;51369;49.862;9.908;2023-06-10T14:28:19;5.47;;;4.97;;
64875;SDS011;51369;49.862;9.908;2023-06-10T14:30:44;6.35;;;4.70;;
64875;SDS011;51369;49.862;9.908;2023-06-10T14:33:10;9.90;;;5.05;;
64875;SDS011;51369;49.862;9.908;2023-06-10T14:35:35;5.95;;;4.60;;
64875;SDS011;51369;49.862;9.908;2023-06-10T14:38:00;4.25;;;3.95;;
64875;SDS011;51369;49.862;9.908;2023-06-10T14:40:26;4.53;;;4.13;;
64875;SDS011;51369;49.862;9.908;2023-06-10T14:42:54;4.85;;;4.15;;
64875;SDS011;51369;49.862;9.908;2023-06-10T14:45:20;4.82;;;4.40;;
64875;SDS011;51369;49.862;9.908;2023-06-10T14:47:45;4.97;;;4.40;;
64875;SDS011;51369;49.862;9.908;2023-06-10T14:50:12;4.57;;;4.18;;
64875;SDS011;51369;49.862;9.908;2023-06-10T14:52:37;4.85;;;4.45;;